Time;durP1;ratioP1;P1;durP2;ratioP2;P2;SDS_P1;SDS_P2;PMS_P1;PMS_P2;Temp;Humidity;BMP_temperature;BMP_pressure;BME280_temperature;BME280_humidity;BME280_pressure;Samples;Min_cycle;Max_cycle;Signal;HPM_P1;HPM_P2
2022/11/06 00:02:11;;;;;;;3.03;0.50;;;;;;;;;;4993008;28;20018;-64
2022/11/06 00:04:37;;;;;;;1.00;0.57;;;;;;;;;;4992452;28;20475;-64
2022/11/06 00:07:03;;;;;;;1.38;0.60;;;;;;;;;;4992694;28;20038;-64
2022/11/06 00:09:29;;;;;;;6.13;0.70;;;;;;;;;;4992552;28;20434;-64
2022/11/06 00:11:56;;;;;;;1.05;0.60;;;;;;;;;;4992945;28;20028;-64
2022/11/06 00:14:22;;;;;;;1.00;0.40;;;;;;;;;;4992768;28;20468;-64
2022/11/06 00:16:48;;;;;;;0.80;0.30;;;;;;;;;;4992479;28;20030;-64
2022/11/06 00:19:15;;;;;;;0.60;0.30;;;;;;;;;;4992896;28;20030;-64
2022/11/06 00:21:41;;;;;;;0.55;0.40;;;;;;;;;;4992343;28;20061;-64
2022/11/06 00:24:08;;;;;;;1.00;0.40;;;;;;;;;;4992548;28;20030;-64
2022/11/06 00:26:35;;;;;;;0.30;0.30;;;;;;;;;;4992711;28;20026;-64
2022/11/06 00:29:01;;;;;;;2.08;0.50;;;;;;;;;;4991505;28;20041;-64
2022/11/06 00:31:29;;;;;;;0.55;0.43;;;;;;;;;;4992660;28;20034;-64
2022/11/06 00:33:56;;;;;;;1.42;0.40;;;;;;;;;;4992257;28;20034;-64
2022/11/06 00:36:23;;;;;;;0.65;0.32;;;;;;;;;;4991975;28;20387;-64
2022/11/06 00:38:53;;;;;;;0.57;0.43;;;;;;;;;;4992286;28;20049;-64
2022/11/06 00:41:19;;;;;;;1.40;0.47;;;;;;;;;;4992278;28;20037;-64
2022/11/06 00:43:58;;;;;;;1.15;0.40;;;;;;;;;;4992057;28;20062;-64
2022/11/06 00:46:25;;;;;;;1.13;0.30;;;;;;;;;;4992445;28;20038;-64
2022/11/06 00:48:52;;;;;;;0.73;0.47;;;;;;;;;;4992347;28;20038;-64
2022/11/06 00:51:19;;;;;;;1.70;0.73;;;;;;;;;;4992096;28;20072;-64
2022/11/06 00:53:46;;;;;;;2.13;0.80;;;;;;;;;;4991978;28;20383;-64
2022/11/06 00:56:16;;;;;;;0.90;0.47;;;;;;;;;;4992318;28;20086;-64
2022/11/06 00:58:42;;;;;;;0.43;0.30;;;;;;;;;;4992053;28;20031;-64
2022/11/06 01:01:10;;;;;;;1.85;0.43;;;;;;;;;;4991795;28;20042;-64
2022/11/06 01:03:36;;;;;;;4.53;0.70;;;;;;;;;;4991667;28;20042;-63
2022/11/06 01:06:16;;;;;;;0.70;0.43;;;;;;;;;;4991693;28;20026;-63
2022/11/06 01:08:43;;;;;;;0.40;0.35;;;;;;;;;;4991921;28;20495;-63
2022/11/06 01:11:14;;;;;;;1.58;0.68;;;;;;;;;;4991817;28;20124;-63
2022/11/06 01:13:40;;;;;;;0.50;0.40;;;;;;;;;;4991661;28;20039;-63
2022/11/06 01:16:08;;;;;;;1.23;0.47;;;;;;;;;;4991804;28;20026;-63
2022/11/06 01:18:35;;;;;;;1.40;0.38;;;;;;;;;;4991658;28;20558;-64
2022/11/06 01:21:05;;;;;;;0.82;0.40;;;;;;;;;;4984991;28;20041;-64
2022/11/06 01:23:31;;;;;;;2.20;0.77;;;;;;;;;;4974071;28;20023;-64
2022/11/06 01:26:01;;;;;;;2.28;0.60;;;;;;;;;;4991326;28;20034;-64
2022/11/06 01:28:28;;;;;;;2.45;0.40;;;;;;;;;;4991681;28;20031;-64
2022/11/06 01:30:54;;;;;;;0.65;0.50;;;;;;;;;;4991477;28;20026;-64
2022/11/06 01:33:21;;;;;;;2.97;0.70;;;;;;;;;;4991268;28;20038;-64
2022/11/06 01:35:48;;;;;;;2.30;0.70;;;;;;;;;;4990613;28;20045;-64
2022/11/06 01:38:14;;;;;;;1.73;0.73;;;;;;;;;;4991279;28;20453;-64
2022/11/06 01:40:44;;;;;;;5.00;0.70;;;;;;;;;;4991061;28;20379;-64
2022/11/06 01:43:15;;;;;;;2.67;0.80;;;;;;;;;;4991196;28;20027;-64
2022/11/06 01:45:43;;;;;;;2.95;0.70;;;;;;;;;;4991221;28;20091;-64
2022/11/06 01:48:09;;;;;;;1.17;0.50;;;;;;;;;;4990869;28;20071;-64
2022/11/06 01:50:35;;;;;;;2.10;0.60;;;;;;;;;;4991098;28;20034;-64
2022/11/06 01:53:02;;;;;;;1.25;0.73;;;;;;;;;;4991051;28;20057;-64
2022/11/06 01:55:34;;;;;;;3.05;0.80;;;;;;;;;;4973429;28;20034;-64
2022/11/06 01:58:02;;;;;;;0.95;0.50;;;;;;;;;;4985058;28;20026;-64
2022/11/06 02:00:30;;;;;;;2.50;0.65;;;;;;;;;;4991074;28;20419;-64
2022/11/06 02:02:56;;;;;;;4.05;0.73;;;;;;;;;;4990738;28;20453;-64
2022/11/06 02:05:22;;;;;;;2.25;0.70;;;;;;;;;;4990864;28;20031;-64
2022/11/06 02:07:48;;;;;;;2.90;0.60;;;;;;;;;;4990844;28;20036;-64
2022/11/06 02:10:14;;;;;;;2.45;0.73;;;;;;;;;;4991056;28;20058;-64
2022/11/06 02:12:59;;;;;;;1.55;0.82;;;;;;;;;;4990855;28;20434;-64
2022/11/06 02:15:54;;;;;;;3.25;0.65;;;;;;;;;;4990823;28;20033;-64
2022/11/06 02:18:24;;;;;;;3.72;0.57;;;;;;;;;;4973978;28;20121;-64
2022/11/06 02:21:01;;;;;;;3.15;0.98;;;;;;;;;;4990732;28;20031;-64
2022/11/06 02:23:30;;;;;;;1.38;0.93;;;;;;;;;;4989677;28;20510;-64
2022/11/06 02:26:14;;;;;;;3.42;0.77;;;;;;;;;;4990237;28;20036;-64
2022/11/06 02:28:47;;;;;;;1.45;1.00;;;;;;;;;;4990870;28;20121;-64
2022/11/06 02:31:16;;;;;;;0.85;0.50;;;;;;;;;;4990889;28;20467;-64
2022/11/06 02:33:47;;;;;;;2.42;0.60;;;;;;;;;;4990501;28;20546;-64
2022/11/06 02:36:16;;;;;;;3.85;0.82;;;;;;;;;;4990512;28;20372;-64
2022/11/06 02:38:48;;;;;;;0.73;0.32;;;;;;;;;;4990771;28;20019;-64
2022/11/06 02:41:22;;;;;;;3.20;0.73;;;;;;;;;;4990282;28;20030;-63
2022/11/06 02:43:51;;;;;;;1.88;0.50;;;;;;;;;;4990184;28;20456;-63
2022/11/06 02:46:22;;;;;;;2.85;0.75;;;;;;;;;;4990560;28;20038;-63
2022/11/06 02:48:51;;;;;;;2.15;0.50;;;;;;;;;;4990532;28;20499;-63
2022/11/06 02:51:20;;;;;;;3.08;0.77;;;;;;;;;;4991185;28;20022;-63
2022/11/06 02:53:47;;;;;;;1.30;0.50;;;;;;;;;;4993808;28;20096;-63
2022/11/06 02:56:18;;;;;;;3.47;0.45;;;;;;;;;;4993872;28;20444;-64
2022/11/06 02:58:47;;;;;;;1.52;0.82;;;;;;;;;;4994041;28;20030;-64
2022/11/06 03:01:17;;;;;;;1.63;0.85;;;;;;;;;;4972909;28;20034;-64
2022/11/06 03:03:46;;;;;;;1.98;0.40;;;;;;;;;;4974293;28;20077;-64
2022/11/06 03:06:16;;;;;;;2.72;0.50;;;;;;;;;;4974364;28;20053;-64
2022/11/06 03:08:45;;;;;;;4.80;0.60;;;;;;;;;;4974578;28;20141;-64
2022/11/06 03:11:15;;;;;;;3.40;0.47;;;;;;;;;;4974136;28;20469;-64
2022/11/06 03:13:41;;;;;;;2.65;1.08;;;;;;;;;;4974261;28;20031;-64
2022/11/06 03:16:13;;;;;;;1.38;0.63;;;;;;;;;;4975862;28;20027;-64
2022/11/06 03:18:46;;;;;;;2.60;0.45;;;;;;;;;;4992520;28;20042;-64
2022/11/06 03:21:22;;;;;;;1.40;0.50;;;;;;;;;;4993546;28;20034;-64
2022/11/06 03:23:57;;;;;;;5.00;0.80;;;;;;;;;;4993430;28;20062;-64
2022/11/06 03:26:30;;;;;;;2.22;0.30;;;;;;;;;;4993528;28;20080;-64
2022/11/06 03:28:56;;;;;;;;;;;;;;;;;;4993808;28;20468;-64
2022/11/06 03:31:42;;;;;;;0.85;0.40;;;;;;;;;;4992819;28;19912;-64
2022/11/06 03:34:12;;;;;;;1.42;0.40;;;;;;;;;;4993434;28;20038;-64
2022/11/06 03:36:43;;;;;;;0.32;0.30;;;;;;;;;;4993313;28;20059;-64
2022/11/06 03:39:12;;;;;;;1.65;0.50;;;;;;;;;;4993150;28;20034;-64
2022/11/06 03:41:41;;;;;;;1.10;0.57;;;;;;;;;;4993257;28;20038;-64
2022/11/06 03:44:09;;;;;;;0.70;0.45;;;;;;;;;;4992745;28;20030;-64
2022/11/06 03:46:37;;;;;;;1.25;0.50;;;;;;;;;;4992897;28;20041;-64
2022/11/06 03:49:06;;;;;;;1.75;0.47;;;;;;;;;;4993156;28;20060;-64
2022/11/06 03:51:37;;;;;;;0.82;0.40;;;;;;;;;;4992839;28;20083;-64
2022/11/06 03:54:11;;;;;;;0.60;0.40;;;;;;;;;;4992708;28;20030;-64
2022/11/06 03:56:43;;;;;;;2.83;0.60;;;;;;;;;;4992749;28;20042;-64
2022/11/06 03:59:09;;;;;;;1.77;0.50;;;;;;;;;;4975305;28;20120;-64
2022/11/06 04:01:37;;;;;;;4.65;0.70;;;;;;;;;;4987551;28;20072;-64
2022/11/06 04:04:14;;;;;;;2.45;0.70;;;;;;;;;;4982027;28;20130;-64
2022/11/06 04:06:41;;;;;;;5.15;0.95;;;;;;;;;;4992579;28;20034;-64
2022/11/06 04:14:44;;;;;;;3.90;0.95;;;;;;;;;;4986646;28;20085;-64
2022/11/06 04:17:12;;;;;;;6.88;1.10;;;;;;;;;;4990449;28;20030;-64
2022/11/06 04:19:40;;;;;;;7.97;1.38;;;;;;;;;;4978458;28;20065;-64
2022/11/06 04:22:27;;;;;;;10.57;1.35;;;;;;;;;;4989450;28;22054;-64
2022/11/06 04:27:59;;;;;;;11.07;1.58;;;;;;;;;;4986385;28;20034;-64
2022/11/06 04:30:25;;;;;;;8.27;1.55;;;;;;;;;;4989967;28;20022;-64
2022/11/06 04:33:01;;;;;;;15.55;2.00;;;;;;;;;;4989758;28;20034;-64
2022/11/06 04:35:36;;;;;;;8.07;1.90;;;;;;;;;;4990929;28;20477;-64
2022/11/06 04:38:21;;;;;;;7.97;2.30;;;;;;;;;;4979027;28;20027;-64
2022/11/06 04:41:17;;;;;;;5.80;1.70;;;;;;;;;;4984089;28;20030;-64
2022/11/06 04:43:46;;;;;;;12.00;1.83;;;;;;;;;;4999429;28;20030;-64
2022/11/06 04:46:15;;;;;;;15.73;2.55;;;;;;;;;;4973150;28;20031;-64
2022/11/06 04:48:42;;;;;;;11.38;1.70;;;;;;;;;;4985617;28;20034;-64
2022/11/06 04:51:10;;;;;;;9.95;1.90;;;;;;;;;;4975680;28;20096;-64
2022/11/06 04:53:36;;;;;;;9.60;1.58;;;;;;;;;;4990913;28;20087;-64
2022/11/06 04:56:07;;;;;;;14.10;2.03;;;;;;;;;;4992219;28;20034;-64
2022/11/06 04:58:33;;;;;;;12.02;2.47;;;;;;;;;;4991789;28;20030;-64
2022/11/06 05:00:59;;;;;;;6.93;2.28;;;;;;;;;;4988610;28;20475;-64
2022/11/06 05:03:25;;;;;;;11.10;2.40;;;;;;;;;;4983152;28;20125;-64
2022/11/06 05:05:51;;;;;;;12.43;2.35;;;;;;;;;;4979571;28;20422;-64
2022/11/06 05:08:19;;;;;;;17.98;2.03;;;;;;;;;;4987839;28;20038;-64
2022/11/06 05:10:46;;;;;;;16.83;2.28;;;;;;;;;;4988684;28;20018;-64
2022/11/06 05:13:13;;;;;;;12.05;2.22;;;;;;;;;;4986940;28;20023;-68
2022/11/06 05:15:39;;;;;;;17.85;2.22;;;;;;;;;;4987636;28;20081;-64
2022/11/06 05:18:06;;;;;;;10.38;2.30;;;;;;;;;;4986817;28;20022;-64
2022/11/06 05:20:32;;;;;;;14.95;1.98;;;;;;;;;;4987555;28;20026;-64
2022/11/06 05:23:01;;;;;;;10.13;2.92;;;;;;;;;;4990112;28;20487;-64
2022/11/06 05:25:29;;;;;;;16.00;2.53;;;;;;;;;;4988997;28;20022;-64
2022/11/06 05:27:55;;;;;;;15.50;2.20;;;;;;;;;;4989772;28;20022;-64
2022/11/06 05:30:22;;;;;;;17.05;2.17;;;;;;;;;;4991381;28;20062;-64
2022/11/06 05:32:48;;;;;;;11.95;2.00;;;;;;;;;;4991723;28;20407;-64
2022/11/06 05:35:15;;;;;;;10.55;2.10;;;;;;;;;;4985001;28;20022;-64
2022/11/06 05:37:41;;;;;;;14.75;3.17;;;;;;;;;;4971976;28;20046;-64
2022/11/06 05:40:07;;;;;;;16.80;3.00;;;;;;;;;;4975291;28;20072;-64
2022/11/06 05:42:36;;;;;;;11.00;2.15;;;;;;;;;;4990905;28;20087;-64
2022/11/06 05:45:02;;;;;;;16.90;2.50;;;;;;;;;;4979328;28;20053;-64
2022/11/06 05:47:28;;;;;;;11.25;1.75;;;;;;;;;;4990477;28;20038;-64
2022/11/06 05:49:54;;;;;;;11.98;2.05;;;;;;;;;;4989706;28;20038;-64
2022/11/06 05:52:20;;;;;;;18.67;2.45;;;;;;;;;;4982168;28;20391;-64
2022/11/06 05:54:46;;;;;;;12.95;1.92;;;;;;;;;;4981227;28;20034;-64
2022/11/06 05:57:12;;;;;;;16.15;2.58;;;;;;;;;;4993234;28;20026;-64
2022/11/06 05:59:38;;;;;;;17.73;2.42;;;;;;;;;;4980329;28;20023;-64
2022/11/06 06:02:04;;;;;;;12.43;2.60;;;;;;;;;;4983323;28;20073;-64
2022/11/06 06:04:31;;;;;;;13.60;2.00;;;;;;;;;;4979356;28;20046;-64
2022/11/06 06:06:57;;;;;;;9.48;2.10;;;;;;;;;;4981595;28;20232;-64
2022/11/06 06:09:23;;;;;;;10.30;2.78;;;;;;;;;;4981251;28;20039;-64
2022/11/06 06:11:52;;;;;;;12.13;2.45;;;;;;;;;;4980681;28;20373;-64
2022/11/06 06:14:19;;;;;;;13.50;2.45;;;;;;;;;;4982069;28;20066;-64
2022/11/06 06:16:45;;;;;;;13.70;2.00;;;;;;;;;;4985398;28;20070;-64
2022/11/06 06:19:11;;;;;;;13.75;2.38;;;;;;;;;;4985164;28;20559;-64
2022/11/06 06:21:37;;;;;;;9.77;2.05;;;;;;;;;;4986228;28;20022;-64
2022/11/06 06:24:04;;;;;;;15.18;2.40;;;;;;;;;;4985850;28;20045;-64
2022/11/06 06:26:30;;;;;;;5.90;2.08;;;;;;;;;;4981551;28;20023;-64
2022/11/06 06:28:56;;;;;;;13.27;2.90;;;;;;;;;;4986487;28;21534;-64
2022/11/06 06:31:23;;;;;;;13.82;2.25;;;;;;;;;;4986181;28;20022;-64
2022/11/06 06:33:49;;;;;;;18.98;2.63;;;;;;;;;;4988056;28;20030;-64
2022/11/06 06:36:15;;;;;;;11.18;2.25;;;;;;;;;;4985778;28;20514;-64
2022/11/06 06:38:41;;;;;;;10.18;2.03;;;;;;;;;;4984349;28;20031;-64
2022/11/06 06:41:08;;;;;;;12.05;2.45;;;;;;;;;;4988087;28;20067;-64
2022/11/06 06:43:34;;;;;;;13.55;2.78;;;;;;;;;;4983689;28;20411;-64
2022/11/06 06:46:01;;;;;;;18.23;3.03;;;;;;;;;;4983430;28;20522;-64
2022/11/06 06:48:28;;;;;;;11.95;2.13;;;;;;;;;;4985429;28;20407;-64
2022/11/06 06:50:57;;;;;;;15.40;2.10;;;;;;;;;;4985629;28;20032;-64
2022/11/06 06:53:24;;;;;;;14.25;2.15;;;;;;;;;;4986015;28;20827;-64
2022/11/06 06:55:50;;;;;;;10.68;2.35;;;;;;;;;;4986946;28;20046;-64
2022/11/06 06:58:16;;;;;;;11.93;2.58;;;;;;;;;;4985330;28;20042;-64
2022/11/06 07:00:42;;;;;;;21.73;2.65;;;;;;;;;;4987167;28;20508;-64
2022/11/06 07:03:09;;;;;;;20.63;2.28;;;;;;;;;;4984196;28;20139;-64
2022/11/06 07:05:35;;;;;;;18.45;2.72;;;;;;;;;;4992126;28;20022;-64
2022/11/06 07:08:01;;;;;;;14.23;2.30;;;;;;;;;;4985459;28;20049;-64
2022/11/06 07:10:27;;;;;;;14.13;2.83;;;;;;;;;;4984643;28;20434;-64
2022/11/06 07:12:53;;;;;;;18.23;3.00;;;;;;;;;;4986587;28;20395;-64
2022/11/06 07:15:19;;;;;;;22.10;3.35;;;;;;;;;;4986455;28;20023;-64
2022/11/06 07:17:46;;;;;;;19.73;2.60;;;;;;;;;;4985253;28;20523;-64
2022/11/06 07:20:12;;;;;;;13.73;2.40;;;;;;;;;;4985251;28;20093;-64
2022/11/06 07:22:38;;;;;;;12.73;2.80;;;;;;;;;;4985583;28;20135;-64
2022/11/06 07:25:04;;;;;;;25.45;3.08;;;;;;;;;;4985994;28;20079;-64
2022/11/06 07:27:31;;;;;;;16.38;2.38;;;;;;;;;;4984733;28;20026;-64
2022/11/06 07:29:59;;;;;;;16.48;2.80;;;;;;;;;;4985747;28;20569;-64
2022/11/06 07:32:25;;;;;;;19.20;3.35;;;;;;;;;;4985107;28;20034;-64
2022/11/06 07:34:51;;;;;;;16.08;2.67;;;;;;;;;;4986292;28;20026;-64
2022/11/06 07:37:17;;;;;;;14.07;2.70;;;;;;;;;;4983535;28;20088;-64
2022/11/06 07:39:43;;;;;;;17.13;2.90;;;;;;;;;;4986481;28;20026;-64
2022/11/06 07:42:09;;;;;;;11.68;2.83;;;;;;;;;;4986539;28;20460;-64
2022/11/06 07:44:36;;;;;;;26.58;6.53;;;;;;;;;;4991903;28;20075;-64
2022/11/06 07:47:03;;;;;;;18.92;3.85;;;;;;;;;;4983264;28;20035;-64
2022/11/06 07:49:29;;;;;;;12.20;3.28;;;;;;;;;;4989600;28;20030;-64
2022/11/06 07:51:55;;;;;;;23.55;5.28;;;;;;;;;;5014335;28;20038;-64
2022/11/06 07:54:21;;;;;;;23.67;5.78;;;;;;;;;;4989345;28;20495;-64
2022/11/06 07:56:47;;;;;;;18.52;4.22;;;;;;;;;;4980299;28;20030;-64
2022/11/06 07:59:13;;;;;;;16.92;3.50;;;;;;;;;;4982358;28;20103;-64
2022/11/06 08:01:39;;;;;;;15.35;3.28;;;;;;;;;;4991117;28;20023;-64
2022/11/06 08:04:05;;;;;;;20.30;3.38;;;;;;;;;;4987457;28;20042;-64
2022/11/06 08:06:31;;;;;;;17.02;3.65;;;;;;;;;;4990843;28;20376;-64
2022/11/06 08:08:58;;;;;;;18.95;3.58;;;;;;;;;;4988997;28;20062;-64
2022/11/06 08:11:24;;;;;;;17.25;3.55;;;;;;;;;;4986143;28;20475;-64
2022/11/06 08:13:50;;;;;;;18.52;2.67;;;;;;;;;;4982434;28;20473;-64
2022/11/06 08:16:16;;;;;;;22.85;3.55;;;;;;;;;;4985444;28;20119;-66
2022/11/06 08:18:43;;;;;;;17.60;3.85;;;;;;;;;;4983045;28;20026;-65
2022/11/06 08:21:09;;;;;;;16.33;3.05;;;;;;;;;;4981754;28;20023;-64
2022/11/06 08:23:36;;;;;;;14.15;3.78;;;;;;;;;;4988465;28;20057;-64
2022/11/06 08:26:03;;;;;;;19.15;3.45;;;;;;;;;;4978982;28;20487;-64
2022/11/06 08:28:29;;;;;;;19.80;2.92;;;;;;;;;;4980008;28;20057;-64
2022/11/06 08:30:55;;;;;;;18.75;3.28;;;;;;;;;;4999212;28;20034;-64
2022/11/06 08:33:22;;;;;;;13.90;2.90;;;;;;;;;;4988651;28;20033;-64
2022/11/06 08:35:48;;;;;;;31.25;5.05;;;;;;;;;;4992551;28;20415;-64
2022/11/06 08:38:15;;;;;;;18.52;4.10;;;;;;;;;;4986723;28;20041;-64
2022/11/06 08:40:41;;;;;;;27.27;3.85;;;;;;;;;;4975933;28;20105;-63
2022/11/06 08:43:09;;;;;;;19.70;3.85;;;;;;;;;;4976005;28;20062;-63
2022/11/06 08:45:39;;;;;;;27.10;3.75;;;;;;;;;;4985224;28;20461;-63
2022/11/06 08:48:06;;;;;;;22.35;3.40;;;;;;;;;;4987012;28;20026;-63
2022/11/06 08:50:33;;;;;;;17.23;3.38;;;;;;;;;;4989627;28;20031;-63
2022/11/06 08:53:02;;;;;;;11.55;3.17;;;;;;;;;;4983342;28;20019;-63
2022/11/06 08:55:29;;;;;;;16.92;3.58;;;;;;;;;;4990190;28;20540;-63
2022/11/06 08:57:56;;;;;;;20.00;3.70;;;;;;;;;;4981656;28;20122;-63
2022/11/06 09:00:22;;;;;;;15.60;3.22;;;;;;;;;;4979276;28;20042;-63
2022/11/06 09:02:48;;;;;;;23.05;3.63;;;;;;;;;;4980274;28;20047;-63
2022/11/06 09:05:14;;;;;;;15.27;2.88;;;;;;;;;;4978369;28;20064;-63
2022/11/06 09:07:40;;;;;;;18.08;2.90;;;;;;;;;;4983636;28;20030;-63
2022/11/06 09:10:06;;;;;;;18.40;2.92;;;;;;;;;;4979205;28;20026;-63
2022/11/06 09:12:32;;;;;;;19.67;5.03;;;;;;;;;;4979659;28;20125;-63
2022/11/06 09:14:59;;;;;;;18.52;3.03;;;;;;;;;;4979670;28;20030;-63
2022/11/06 09:17:25;;;;;;;17.15;3.17;;;;;;;;;;4980744;28;20039;-63
2022/11/06 09:19:51;;;;;;;19.13;2.30;;;;;;;;;;4980350;28;20105;-63
2022/11/06 09:22:17;;;;;;;16.08;3.17;;;;;;;;;;4981197;28;20030;-63
2022/11/06 09:24:43;;;;;;;17.05;2.90;;;;;;;;;;4981551;28;20706;-63
2022/11/06 09:27:10;;;;;;;12.18;2.33;;;;;;;;;;4981974;28;20034;-63
2022/11/06 09:29:39;;;;;;;17.33;3.28;;;;;;;;;;4980311;28;20034;-63
2022/11/06 09:32:06;;;;;;;13.60;1.92;;;;;;;;;;4980936;28;20038;-63
2022/11/06 09:34:32;;;;;;;12.90;2.70;;;;;;;;;;4981891;28;20125;-63
2022/11/06 09:37:01;;;;;;;25.17;3.40;;;;;;;;;;4980739;28;20415;-63
2022/11/06 09:39:27;;;;;;;15.27;2.13;;;;;;;;;;4978777;28;20018;-63
2022/11/06 09:41:59;;;;;;;13.40;2.38;;;;;;;;;;4980797;28;20408;-63
2022/11/06 09:44:25;;;;;;;18.48;3.15;;;;;;;;;;4981545;28;20413;-63
2022/11/06 09:46:53;;;;;;;10.23;2.10;;;;;;;;;;4982592;28;20075;-63
2022/11/06 09:49:25;;;;;;;15.98;2.88;;;;;;;;;;4980957;28;20041;-64
2022/11/06 09:51:58;;;;;;;10.55;1.63;;;;;;;;;;4978353;28;20031;-63
2022/11/06 09:54:24;;;;;;;8.77;2.13;;;;;;;;;;4978950;28;20038;-63
2022/11/06 09:56:53;;;;;;;11.40;2.28;;;;;;;;;;4974926;28;20411;-63
2022/11/06 09:59:20;;;;;;;8.07;1.83;;;;;;;;;;4974278;28;20070;-63
2022/11/06 10:01:54;;;;;;;16.77;2.10;;;;;;;;;;4988379;28;20022;-63
2022/11/06 10:04:40;;;;;;;12.30;1.85;;;;;;;;;;4986088;28;20072;-63
2022/11/06 10:07:26;;;;;;;11.13;2.50;;;;;;;;;;4988538;28;20483;-64
2022/11/06 10:09:52;;;;;;;14.68;1.65;;;;;;;;;;4988605;28;20026;-64
2022/11/06 10:12:38;;;;;;;9.57;1.75;;;;;;;;;;4990768;28;20129;-64
2022/11/06 10:15:17;;;;;;;12.82;2.10;;;;;;;;;;4986851;28;20483;-64
2022/11/06 10:17:43;;;;;;;8.88;1.92;;;;;;;;;;4988830;28;20034;-64
2022/11/06 10:20:18;;;;;;;12.10;2.05;;;;;;;;;;4981833;28;20019;-64
2022/11/06 10:22:51;;;;;;;11.07;2.13;;;;;;;;;;4983864;28;20038;-64
2022/11/06 10:25:37;;;;;;;14.23;2.70;;;;;;;;;;4979126;28;20025;-64
2022/11/06 10:28:14;;;;;;;11.65;1.77;;;;;;;;;;4985839;28;20034;-64
2022/11/06 10:30:54;;;;;;;10.65;2.53;;;;;;;;;;4986128;28;21012;-64
2022/11/06 10:33:29;;;;;;;15.30;2.95;;;;;;;;;;4984010;28;20472;-64
2022/11/06 10:36:18;;;;;;;11.77;2.33;;;;;;;;;;4990214;28;20041;-64
2022/11/06 10:38:46;;;;;;;10.68;2.45;;;;;;;;;;4996064;28;20056;-64
2022/11/06 10:41:15;;;;;;;12.80;1.77;;;;;;;;;;4989791;28;20097;-64
2022/11/06 10:44:00;;;;;;;11.50;2.30;;;;;;;;;;4985225;28;20027;-64
2022/11/06 10:46:34;;;;;;;15.30;2.75;;;;;;;;;;4988401;28;20035;-64
2022/11/06 10:49:01;;;;;;;13.80;1.95;;;;;;;;;;4984817;28;20022;-64
2022/11/06 10:51:33;;;;;;;13.80;3.13;;;;;;;;;;4989793;28;20027;-64
2022/11/06 10:54:14;;;;;;;11.67;1.47;;;;;;;;;;4986543;28;20121;-64
2022/11/06 10:56:50;;;;;;;6.97;1.13;;;;;;;;;;5006737;28;20038;-64
2022/11/06 10:59:16;;;;;;;8.57;1.25;;;;;;;;;;4972043;28;20037;-64
2022/11/06 11:01:42;;;;;;;3.92;0.82;;;;;;;;;;4983047;28;20026;-64
2022/11/06 11:04:08;;;;;;;5.35;0.88;;;;;;;;;;4978414;28;20062;-64
2022/11/06 11:06:38;;;;;;;2.28;0.60;;;;;;;;;;4980365;28;20034;-64
2022/11/06 11:09:24;;;;;;;4.68;0.65;;;;;;;;;;4985170;28;20092;-64
2022/11/06 11:11:50;;;;;;;7.00;0.90;;;;;;;;;;4989205;28;20499;-64
2022/11/06 11:14:22;;;;;;;4.35;0.60;;;;;;;;;;4989673;28;20026;-64
2022/11/06 11:16:48;;;;;;;10.35;1.10;;;;;;;;;;4977563;28;20083;-64
2022/11/06 11:19:33;;;;;;;1.00;0.60;;;;;;;;;;4985550;28;20053;-64
2022/11/06 11:22:01;;;;;;;2.38;0.60;;;;;;;;;;4984178;28;20079;-64
2022/11/06 11:24:27;;;;;;;1.77;0.50;;;;;;;;;;4983594;28;20545;-64
2022/11/06 11:27:02;;;;;;;3.30;0.60;;;;;;;;;;4990486;28;20479;-64
2022/11/06 11:29:43;;;;;;;2.63;1.77;;;;;;;;;;4981964;28;20034;-64
2022/11/06 11:32:13;;;;;;;3.90;0.82;;;;;;;;;;4990804;28;20038;-63
2022/11/06 11:34:44;;;;;;;4.90;0.85;;;;;;;;;;4988405;28;20023;-63
2022/11/06 11:37:20;;;;;;;7.57;1.38;;;;;;;;;;4982881;28;20037;-63
2022/11/06 11:39:46;;;;;;;8.23;1.20;;;;;;;;;;4985557;28;20018;-64
2022/11/06 11:42:29;;;;;;;4.93;1.90;;;;;;;;;;4985382;28;20039;-64
2022/11/06 11:45:07;;;;;;;7.10;1.88;;;;;;;;;;4985253;28;20046;-64
2022/11/06 11:47:34;;;;;;;7.60;1.88;;;;;;;;;;4983253;28;20444;-64
2022/11/06 11:50:25;;;;;;;4.05;2.40;;;;;;;;;;4984164;28;20148;-64
2022/11/06 11:52:54;;;;;;;4.97;1.17;;;;;;;;;;4983675;28;20019;-64
2022/11/06 11:55:22;;;;;;;5.47;1.38;;;;;;;;;;4985095;28;20157;-64
2022/11/06 11:57:49;;;;;;;5.85;1.33;;;;;;;;;;4986722;28;20514;-64
2022/11/06 12:00:19;;;;;;;5.88;1.55;;;;;;;;;;4985980;28;20068;-64
2022/11/06 12:02:47;;;;;;;3.83;1.55;;;;;;;;;;4985397;28;20516;-64
2022/11/06 12:05:15;;;;;;;6.35;1.60;;;;;;;;;;4986188;28;20096;-64
2022/11/06 12:07:43;;;;;;;5.88;1.48;;;;;;;;;;4986303;28;20033;-63
2022/11/06 12:10:35;;;;;;;4.63;1.30;;;;;;;;;;4974476;28;20430;-64
2022/11/06 12:13:05;;;;;;;7.03;1.60;;;;;;;;;;4980793;28;20049;-64
2022/11/06 12:15:50;;;;;;;4.80;1.52;;;;;;;;;;4984234;28;20033;-64
2022/11/06 12:18:21;;;;;;;7.55;1.38;;;;;;;;;;4982206;28;20080;-64
2022/11/06 12:21:02;;;;;;;9.05;2.25;;;;;;;;;;4982827;28;20030;-64
2022/11/06 12:23:28;;;;;;;15.43;3.08;;;;;;;;;;4981256;28;20041;-64
2022/11/06 12:26:13;;;;;;;9.93;2.25;;;;;;;;;;4980464;28;20023;-64
2022/11/06 12:28:40;;;;;;;13.27;2.88;;;;;;;;;;4977361;28;20042;-64
2022/11/06 12:31:25;;;;;;;10.20;2.38;;;;;;;;;;4980546;28;20030;-64
2022/11/06 12:33:52;;;;;;;15.50;2.42;;;;;;;;;;4983277;28;20758;-64
2022/11/06 12:36:19;;;;;;;16.02;2.83;;;;;;;;;;4983873;28;20044;-64
2022/11/06 12:38:45;;;;;;;14.80;2.47;;;;;;;;;;4981170;28;20037;-64
2022/11/06 12:41:30;;;;;;;11.25;3.00;;;;;;;;;;4987259;28;20030;-64
2022/11/06 12:43:57;;;;;;;12.45;2.85;;;;;;;;;;4987184;28;20067;-64
2022/11/06 12:46:23;;;;;;;14.38;3.10;;;;;;;;;;4978486;28;20022;-64
2022/11/06 12:48:52;;;;;;;16.17;3.22;;;;;;;;;;4978901;28;20023;-64
2022/11/06 12:51:21;;;;;;;18.63;3.28;;;;;;;;;;4984632;28;20034;-64
2022/11/06 12:54:07;;;;;;;14.48;3.33;;;;;;;;;;4985814;28;20027;-64
2022/11/06 12:56:49;;;;;;;24.20;3.33;;;;;;;;;;4983880;28;20050;-64
2022/11/06 12:59:32;;;;;;;17.90;2.90;;;;;;;;;;4984950;28;20038;-64
2022/11/06 13:02:17;;;;;;;26.45;3.70;;;;;;;;;;4986944;28;20033;-64
2022/11/06 13:04:51;;;;;;;18.67;3.28;;;;;;;;;;5048580;28;20041;-64
2022/11/06 13:07:32;;;;;;;22.83;3.65;;;;;;;;;;5046075;28;20033;-64
2022/11/06 13:10:17;;;;;;;24.30;4.93;;;;;;;;;;5045746;28;20021;-64
2022/11/06 13:12:51;;;;;;;24.52;3.95;;;;;;;;;;5045979;28;20032;-64
2022/11/06 13:15:22;;;;;;;22.90;3.20;;;;;;;;;;5050092;28;20037;-64
2022/11/06 13:17:54;;;;;;;17.20;2.60;;;;;;;;;;5046844;28;20037;-64
2022/11/06 13:20:36;;;;;;;14.50;4.05;;;;;;;;;;5049663;28;20032;-64
2022/11/06 13:23:14;;;;;;;25.20;3.58;;;;;;;;;;5046758;28;20033;-64
2022/11/06 13:25:43;;;;;;;19.83;3.40;;;;;;;;;;5042354;28;20067;-64
2022/11/06 13:28:15;;;;;;;26.95;5.85;;;;;;;;;;5048625;28;20017;-64
2022/11/06 13:30:42;;;;;;;19.05;3.03;;;;;;;;;;5047935;28;20039;-64
2022/11/06 13:33:26;;;;;;;32.92;4.65;;;;;;;;;;5047294;28;20390;-64
2022/11/06 13:35:53;;;;;;;26.33;4.03;;;;;;;;;;5044497;28;20028;-64
2022/11/06 13:38:22;;;;;;;31.90;4.25;;;;;;;;;;5043474;28;20387;-64
2022/11/06 13:40:52;;;;;;;29.35;5.30;;;;;;;;;;5041671;28;20120;-64
2022/11/06 13:43:18;;;;;;;27.40;5.85;;;;;;;;;;5041042;28;20421;-64
2022/11/06 13:45:44;;;;;;;23.35;4.35;;;;;;;;;;5047016;28;20025;-64
2022/11/06 13:48:29;;;;;;;24.45;3.92;;;;;;;;;;5048854;28;20079;-64
2022/11/06 13:50:55;;;;;;;20.08;3.60;;;;;;;;;;5045001;28;20497;-64
2022/11/06 13:53:25;;;;;;;26.80;4.40;;;;;;;;;;5043986;28;20025;-64
2022/11/06 13:55:57;;;;;;;21.63;4.47;;;;;;;;;;5045435;28;20738;-64
2022/11/06 13:58:35;;;;;;;28.97;5.73;;;;;;;;;;5046229;28;20385;-63
2022/11/06 14:01:19;;;;;;;26.20;4.10;;;;;;;;;;5044445;28;20078;-63
2022/11/06 14:03:46;;;;;;;18.50;4.10;;;;;;;;;;5010203;28;20155;-63
2022/11/06 14:06:20;;;;;;;22.70;3.55;;;;;;;;;;4985891;28;20125;-63
2022/11/06 14:08:58;;;;;;;21.77;3.00;;;;;;;;;;4986428;28;20088;-63
2022/11/06 14:11:32;;;;;;;20.38;2.70;;;;;;;;;;4985400;28;20123;-63
2022/11/06 14:13:58;;;;;;;12.05;3.03;;;;;;;;;;4981515;28;20045;-63
2022/11/06 14:16:25;;;;;;;14.85;2.88;;;;;;;;;;4988639;28;20542;-63
2022/11/06 14:18:57;;;;;;;20.63;3.17;;;;;;;;;;4985379;28;20046;-63
2022/11/06 14:21:30;;;;;;;16.87;3.00;;;;;;;;;;4983841;28;20153;-63
2022/11/06 14:24:06;;;;;;;10.70;2.80;;;;;;;;;;4985291;28;20281;-63
2022/11/06 14:26:42;;;;;;;15.70;2.53;;;;;;;;;;4978713;28;20034;-63
2022/11/06 14:29:24;;;;;;;14.95;3.22;;;;;;;;;;4981169;28;20026;-63
2022/11/06 14:32:11;;;;;;;9.82;2.00;;;;;;;;;;4973816;28;20392;-63
2022/11/06 14:34:38;;;;;;;12.75;2.80;;;;;;;;;;4971954;28;20039;-64
2022/11/06 14:37:23;;;;;;;12.00;2.78;;;;;;;;;;4973830;28;20030;-64
2022/11/06 14:39:55;;;;;;;10.52;2.45;;;;;;;;;;4974390;28;20164;-63
2022/11/06 14:42:32;;;;;;;12.00;2.73;;;;;;;;;;4969830;28;20106;-64
2022/11/06 14:44:58;;;;;;;12.88;2.38;;;;;;;;;;4978041;28;20026;-63
2022/11/06 14:47:27;;;;;;;13.40;2.50;;;;;;;;;;4973945;28;20027;-63
2022/11/06 14:49:54;;;;;;;18.95;2.97;;;;;;;;;;4974501;28;20030;-65
2022/11/06 14:52:22;;;;;;;17.40;2.65;;;;;;;;;;4977573;28;20102;-64
2022/11/06 14:54:57;;;;;;;17.63;3.10;;;;;;;;;;4975088;28;20061;-63
2022/11/06 14:57:52;;;;;;;16.23;3.53;;;;;;;;;;4977107;28;20488;-63
2022/11/06 15:00:30;;;;;;;14.73;2.78;;;;;;;;;;4981887;28;20043;-63
2022/11/06 15:02:57;;;;;;;13.25;3.08;;;;;;;;;;4973409;28;20053;-63